sensor_id;sensor_type;location;lat;lon;timestamp;P1;durP1;ratioP1;P2;durP2;ratioP2
67768;SDS011;54569;52.018;5.584;2022-10-26T00:00:37;5.50;;;4.47;;
67768;SDS011;54569;52.018;5.584;2022-10-26T00:03:03;7.15;;;4.38;;
67768;SDS011;54569;52.018;5.584;2022-10-26T00:05:30;8.07;;;4.35;;
67768;SDS011;54569;52.018;5.584;2022-10-26T00:07:57;4.97;;;4.25;;
67768;SDS011;54569;52.018;5.584;2022-10-26T00:10:22;5.60;;;4.43;;
67768;SDS011;54569;52.018;5.584;2022-10-26T00:12:49;7.22;;;4.43;;
67768;SDS011;54569;52.018;5.584;2022-10-26T00:15:18;5.07;;;4.35;;
67768;SDS011;54569;52.018;5.584;2022-10-26T00:17:45;4.72;;;3.88;;
67768;SDS011;54569;52.018;5.584;2022-10-26T00:20:12;4.68;;;4.15;;
67768;SDS011;54569;52.018;5.584;2022-10-26T00:22:38;4.68;;;4.25;;
67768;SDS011;54569;52.018;5.584;2022-10-26T00:25:04;5.05;;;4.18;;
67768;SDS011;54569;52.018;5.584;2022-10-26T00:27:31;4.47;;;4.07;;
67768;SDS011;54569;52.018;5.584;2022-10-26T00:29:59;9.27;;;4.72;;
67768;SDS011;54569;52.018;5.584;2022-10-26T00:32:25;5.03;;;4.53;;
67768;SDS011;54569;52.018;5.584;2022-10-26T00:34:51;5.75;;;3.50;;
67768;SDS011;54569;52.018;5.584;2022-10-26T00:37:17;3.83;;;3.42;;
67768;SDS011;54569;52.018;5.584;2022-10-26T00:39:43;7.18;;;4.10;;
67768;SDS011;54569;52.018;5.584;2022-10-26T00:42:13;5.60;;;3.67;;
67768;SDS011;54569;52.018;5.584;2022-10-26T00:47:17;5.88;;;3.95;;
67768;SDS011;54569;52.018;5.584;2022-10-26T00:50:04;6.72;;;4.25;;
67768;SDS011;54569;52.018;5.584;2022-10-26T00:52:37;9.30;;;4.72;;
67768;SDS011;54569;52.018;5.584;2022-10-26T00:55:04;6.40;;;3.75;;
67768;SDS011;54569;52.018;5.584;2022-10-26T00:57:34;7.38;;;3.92;;
67768;SDS011;54569;52.018;5.584;2022-10-26T01:00:01;6.70;;;3.97;;
67768;SDS011;54569;52.018;5.584;2022-10-26T01:02:28;7.72;;;3.90;;
67768;SDS011;54569;52.018;5.584;2022-10-26T01:04:54;5.53;;;4.18;;
67768;SDS011;54569;52.018;5.584;2022-10-26T01:07:20;8.18;;;4.30;;
67768;SDS011;54569;52.018;5.584;2022-10-26T01:09:46;5.63;;;4.18;;
67768;SDS011;54569;52.018;5.584;2022-10-26T01:12:13;7.97;;;3.78;;
67768;SDS011;54569;52.018;5.584;2022-10-26T01:14:38;6.65;;;3.53;;
67768;SDS011;54569;52.018;5.584;2022-10-26T01:27:50;4.63;;;3.80;;
67768;SDS011;54569;52.018;5.584;2022-10-26T01:33:08;5.53;;;3.83;;
67768;SDS011;54569;52.018;5.584;2022-10-26T01:41:33;5.72;;;4.28;;
67768;SDS011;54569;52.018;5.584;2022-10-26T01:44:07;8.38;;;4.70;;
67768;SDS011;54569;52.018;5.584;2022-10-26T01:46:54;4.15;;;3.63;;
67768;SDS011;54569;52.018;5.584;2022-10-26T01:49:25;4.90;;;3.83;;
67768;SDS011;54569;52.018;5.584;2022-10-26T01:51:56;6.35;;;4.22;;
67768;SDS011;54569;52.018;5.584;2022-10-26T01:54:22;7.10;;;4.95;;
67768;SDS011;54569;52.018;5.584;2022-10-26T01:56:52;11.38;;;4.93;;
67768;SDS011;54569;52.018;5.584;2022-10-26T02:02:13;5.85;;;4.28;;
67768;SDS011;54569;52.018;5.584;2022-10-26T02:07:44;5.88;;;4.85;;
67768;SDS011;54569;52.018;5.584;2022-10-26T02:14:33;5.88;;;5.07;;
67768;SDS011;54569;52.018;5.584;2022-10-26T02:16:38;6.17;;;4.40;;
67768;SDS011;54569;52.018;5.584;2022-10-26T02:19:14;6.00;;;4.80;;
67768;SDS011;54569;52.018;5.584;2022-10-26T02:25:03;12.50;;;5.00;;
67768;SDS011;54569;52.018;5.584;2022-10-26T02:27:37;6.38;;;4.78;;
67768;SDS011;54569;52.018;5.584;2022-10-26T02:30:08;8.85;;;5.63;;
67768;SDS011;54569;52.018;5.584;2022-10-26T02:32:36;9.77;;;6.28;;
67768;SDS011;54569;52.018;5.584;2022-10-26T02:35:05;7.05;;;5.78;;
67768;SDS011;54569;52.018;5.584;2022-10-26T02:37:32;9.23;;;5.03;;
67768;SDS011;54569;52.018;5.584;2022-10-26T02:39:59;5.85;;;4.85;;
67768;SDS011;54569;52.018;5.584;2022-10-26T02:42:30;10.05;;;5.53;;
67768;SDS011;54569;52.018;5.584;2022-10-26T02:44:58;7.15;;;5.32;;
67768;SDS011;54569;52.018;5.584;2022-10-26T02:47:28;9.10;;;5.13;;
67768;SDS011;54569;52.018;5.584;2022-10-26T02:49:54;10.10;;;4.65;;
67768;SDS011;54569;52.018;5.584;2022-10-26T02:52:22;7.40;;;4.85;;
67768;SDS011;54569;52.018;5.584;2022-10-26T02:55:08;9.52;;;5.05;;
67768;SDS011;54569;52.018;5.584;2022-10-26T02:57:42;8.98;;;4.72;;
67768;SDS011;54569;52.018;5.584;2022-10-26T03:00:13;6.28;;;4.63;;
67768;SDS011;54569;52.018;5.584;2022-10-26T03:02:41;11.32;;;4.78;;
67768;SDS011;54569;52.018;5.584;2022-10-26T03:05:30;11.05;;;5.15;;
67768;SDS011;54569;52.018;5.584;2022-10-26T03:07:56;6.55;;;4.57;;
67768;SDS011;54569;52.018;5.584;2022-10-26T03:10:23;6.72;;;4.78;;
67768;SDS011;54569;52.018;5.584;2022-10-26T03:12:49;6.85;;;4.57;;
67768;SDS011;54569;52.018;5.584;2022-10-26T03:15:16;5.68;;;4.65;;
67768;SDS011;54569;52.018;5.584;2022-10-26T03:17:42;6.95;;;4.13;;
67768;SDS011;54569;52.018;5.584;2022-10-26T03:20:08;8.77;;;5.00;;
67768;SDS011;54569;52.018;5.584;2022-10-26T03:22:34;6.22;;;4.32;;
67768;SDS011;54569;52.018;5.584;2022-10-26T03:25:00;8.23;;;4.90;;
67768;SDS011;54569;52.018;5.584;2022-10-26T03:27:26;8.20;;;4.88;;
67768;SDS011;54569;52.018;5.584;2022-10-26T03:29:52;10.57;;;4.78;;
67768;SDS011;54569;52.018;5.584;2022-10-26T03:32:18;8.68;;;4.78;;
67768;SDS011;54569;52.018;5.584;2022-10-26T03:34:44;6.60;;;5.25;;
67768;SDS011;54569;52.018;5.584;2022-10-26T03:37:10;6.00;;;4.75;;
67768;SDS011;54569;52.018;5.584;2022-10-26T03:39:35;6.80;;;4.65;;
67768;SDS011;54569;52.018;5.584;2022-10-26T03:42:01;5.90;;;4.00;;
67768;SDS011;54569;52.018;5.584;2022-10-26T03:44:27;8.63;;;4.63;;
67768;SDS011;54569;52.018;5.584;2022-10-26T03:46:52;8.48;;;5.07;;
67768;SDS011;54569;52.018;5.584;2022-10-26T03:49:18;7.72;;;4.43;;
67768;SDS011;54569;52.018;5.584;2022-10-26T03:51:44;7.60;;;4.72;;
67768;SDS011;54569;52.018;5.584;2022-10-26T03:54:09;11.00;;;4.68;;
67768;SDS011;54569;52.018;5.584;2022-10-26T03:56:35;5.43;;;4.75;;
67768;SDS011;54569;52.018;5.584;2022-10-26T03:59:01;6.60;;;4.43;;
67768;SDS011;54569;52.018;5.584;2022-10-26T04:01:26;5.38;;;3.95;;
67768;SDS011;54569;52.018;5.584;2022-10-26T04:03:52;5.55;;;4.60;;
67768;SDS011;54569;52.018;5.584;2022-10-26T04:06:18;8.55;;;4.07;;
67768;SDS011;54569;52.018;5.584;2022-10-26T04:08:43;7.82;;;5.07;;
67768;SDS011;54569;52.018;5.584;2022-10-26T04:11:09;5.82;;;4.63;;
67768;SDS011;54569;52.018;5.584;2022-10-26T04:13:35;7.45;;;4.60;;
67768;SDS011;54569;52.018;5.584;2022-10-26T04:16:00;6.68;;;4.78;;
67768;SDS011;54569;52.018;5.584;2022-10-26T04:18:26;7.97;;;4.97;;
67768;SDS011;54569;52.018;5.584;2022-10-26T04:20:52;8.23;;;4.90;;
67768;SDS011;54569;52.018;5.584;2022-10-26T04:23:18;5.75;;;4.82;;
67768;SDS011;54569;52.018;5.584;2022-10-26T04:25:44;10.38;;;4.90;;
67768;SDS011;54569;52.018;5.584;2022-10-26T04:28:10;5.20;;;4.40;;
67768;SDS011;54569;52.018;5.584;2022-10-26T04:30:37;6.07;;;4.05;;
67768;SDS011;54569;52.018;5.584;2022-10-26T04:33:04;7.70;;;4.90;;
67768;SDS011;54569;52.018;5.584;2022-10-26T04:35:30;6.95;;;4.82;;
67768;SDS011;54569;52.018;5.584;2022-10-26T04:37:57;6.53;;;4.55;;
67768;SDS011;54569;52.018;5.584;2022-10-26T04:40:23;5.57;;;4.63;;
67768;SDS011;54569;52.018;5.584;2022-10-26T04:42:49;5.53;;;4.75;;
67768;SDS011;54569;52.018;5.584;2022-10-26T04:45:15;8.68;;;5.00;;
67768;SDS011;54569;52.018;5.584;2022-10-26T04:47:40;8.90;;;4.53;;
67768;SDS011;54569;52.018;5.584;2022-10-26T04:50:07;8.85;;;4.70;;
67768;SDS011;54569;52.018;5.584;2022-10-26T04:52:34;5.75;;;4.38;;
67768;SDS011;54569;52.018;5.584;2022-10-26T04:55:00;6.00;;;5.40;;
67768;SDS011;54569;52.018;5.584;2022-10-26T04:57:30;7.32;;;4.90;;
67768;SDS011;54569;52.018;5.584;2022-10-26T04:59:57;8.15;;;5.30;;
67768;SDS011;54569;52.018;5.584;2022-10-26T05:02:23;6.50;;;4.43;;
67768;SDS011;54569;52.018;5.584;2022-10-26T05:04:48;8.35;;;5.05;;
67768;SDS011;54569;52.018;5.584;2022-10-26T05:07:14;7.28;;;5.30;;
67768;SDS011;54569;52.018;5.584;2022-10-26T05:09:40;9.07;;;5.25;;
67768;SDS011;54569;52.018;5.584;2022-10-26T05:12:05;7.65;;;5.00;;
67768;SDS011;54569;52.018;5.584;2022-10-26T05:14:31;9.13;;;5.07;;
67768;SDS011;54569;52.018;5.584;2022-10-26T05:16:57;8.25;;;5.45;;
67768;SDS011;54569;52.018;5.584;2022-10-26T05:19:23;5.82;;;5.18;;
67768;SDS011;54569;52.018;5.584;2022-10-26T05:21:49;7.70;;;4.60;;
67768;SDS011;54569;52.018;5.584;2022-10-26T05:24:17;6.43;;;5.20;;
67768;SDS011;54569;52.018;5.584;2022-10-26T05:26:43;7.25;;;5.03;;
67768;SDS011;54569;52.018;5.584;2022-10-26T05:29:09;6.35;;;4.97;;
67768;SDS011;54569;52.018;5.584;2022-10-26T05:31:34;8.10;;;5.38;;
67768;SDS011;54569;52.018;5.584;2022-10-26T05:34:00;9.25;;;5.35;;
67768;SDS011;54569;52.018;5.584;2022-10-26T05:36:26;6.40;;;5.10;;
67768;SDS011;54569;52.018;5.584;2022-10-26T05:38:51;8.32;;;5.05;;
67768;SDS011;54569;52.018;5.584;2022-10-26T05:41:18;7.35;;;4.25;;
67768;SDS011;54569;52.018;5.584;2022-10-26T05:43:45;6.13;;;4.63;;
67768;SDS011;54569;52.018;5.584;2022-10-26T05:46:11;5.68;;;4.45;;
67768;SDS011;54569;52.018;5.584;2022-10-26T05:48:37;6.32;;;4.45;;
67768;SDS011;54569;52.018;5.584;2022-10-26T05:51:02;9.07;;;4.22;;
67768;SDS011;54569;52.018;5.584;2022-10-26T05:53:28;6.22;;;4.57;;
67768;SDS011;54569;52.018;5.584;2022-10-26T05:55:54;6.30;;;4.55;;
67768;SDS011;54569;52.018;5.584;2022-10-26T05:58:21;7.13;;;5.38;;
67768;SDS011;54569;52.018;5.584;2022-10-26T06:00:51;8.85;;;5.47;;
67768;SDS011;54569;52.018;5.584;2022-10-26T06:03:37;7.25;;;4.60;;
67768;SDS011;54569;52.018;5.584;2022-10-26T06:06:35;8.45;;;4.43;;
67768;SDS011;54569;52.018;5.584;2022-10-26T06:09:04;6.30;;;4.80;;
67768;SDS011;54569;52.018;5.584;2022-10-26T06:11:30;10.38;;;5.30;;
67768;SDS011;54569;52.018;5.584;2022-10-26T06:13:56;9.02;;;5.00;;
67768;SDS011;54569;52.018;5.584;2022-10-26T06:16:52;9.02;;;5.03;;
67768;SDS011;54569;52.018;5.584;2022-10-26T06:21:54;7.32;;;5.30;;
67768;SDS011;54569;52.018;5.584;2022-10-26T06:24:35;6.82;;;4.72;;
67768;SDS011;54569;52.018;5.584;2022-10-26T06:30:03;5.50;;;4.82;;
67768;SDS011;54569;52.018;5.584;2022-10-26T06:32:31;6.88;;;5.07;;
67768;SDS011;54569;52.018;5.584;2022-10-26T06:35:04;6.30;;;4.90;;
67768;SDS011;54569;52.018;5.584;2022-10-26T06:37:44;7.43;;;5.40;;
67768;SDS011;54569;52.018;5.584;2022-10-26T06:40:12;9.48;;;5.03;;
67768;SDS011;54569;52.018;5.584;2022-10-26T06:42:40;9.45;;;4.85;;
67768;SDS011;54569;52.018;5.584;2022-10-26T06:45:09;7.63;;;4.95;;
67768;SDS011;54569;52.018;5.584;2022-10-26T06:50:49;6.47;;;4.90;;
67768;SDS011;54569;52.018;5.584;2022-10-26T06:55:57;8.15;;;5.00;;
67768;SDS011;54569;52.018;5.584;2022-10-26T06:58:24;10.02;;;4.88;;
67768;SDS011;54569;52.018;5.584;2022-10-26T07:00:54;7.47;;;4.97;;
67768;SDS011;54569;52.018;5.584;2022-10-26T07:03:20;8.32;;;4.80;;
67768;SDS011;54569;52.018;5.584;2022-10-26T07:05:46;9.07;;;4.78;;
67768;SDS011;54569;52.018;5.584;2022-10-26T07:08:11;9.13;;;5.18;;
67768;SDS011;54569;52.018;5.584;2022-10-26T07:10:38;5.85;;;4.20;;
67768;SDS011;54569;52.018;5.584;2022-10-26T07:13:04;11.02;;;4.75;;
67768;SDS011;54569;52.018;5.584;2022-10-26T07:15:31;7.35;;;4.00;;
67768;SDS011;54569;52.018;5.584;2022-10-26T07:18:00;6.85;;;4.60;;
67768;SDS011;54569;52.018;5.584;2022-10-26T07:20:29;6.55;;;3.90;;
67768;SDS011;54569;52.018;5.584;2022-10-26T07:22:56;4.47;;;3.80;;
67768;SDS011;54569;52.018;5.584;2022-10-26T07:25:22;4.72;;;3.50;;
67768;SDS011;54569;52.018;5.584;2022-10-26T07:27:49;6.18;;;3.50;;
67768;SDS011;54569;52.018;5.584;2022-10-26T07:30:15;5.13;;;3.63;;
67768;SDS011;54569;52.018;5.584;2022-10-26T07:32:41;5.63;;;3.50;;
67768;SDS011;54569;52.018;5.584;2022-10-26T07:35:07;5.40;;;3.30;;
67768;SDS011;54569;52.018;5.584;2022-10-26T07:37:33;5.38;;;2.88;;
67768;SDS011;54569;52.018;5.584;2022-10-26T07:39:59;6.28;;;3.17;;
67768;SDS011;54569;52.018;5.584;2022-10-26T07:42:24;3.65;;;3.10;;
67768;SDS011;54569;52.018;5.584;2022-10-26T07:44:50;4.10;;;3.03;;
67768;SDS011;54569;52.018;5.584;2022-10-26T07:47:16;4.38;;;3.13;;
67768;SDS011;54569;52.018;5.584;2022-10-26T07:49:41;3.70;;;3.35;;
67768;SDS011;54569;52.018;5.584;2022-10-26T07:52:08;4.90;;;2.90;;
67768;SDS011;54569;52.018;5.584;2022-10-26T07:54:34;4.97;;;2.88;;
67768;SDS011;54569;52.018;5.584;2022-10-26T07:57:00;5.45;;;3.35;;
67768;SDS011;54569;52.018;5.584;2022-10-26T07:59:26;8.00;;;3.10;;
67768;SDS011;54569;52.018;5.584;2022-10-26T08:01:51;4.93;;;2.95;;
67768;SDS011;54569;52.018;5.584;2022-10-26T08:04:17;7.93;;;3.30;;
67768;SDS011;54569;52.018;5.584;2022-10-26T08:06:43;4.18;;;2.80;;
67768;SDS011;54569;52.018;5.584;2022-10-26T08:09:08;5.25;;;2.65;;
67768;SDS011;54569;52.018;5.584;2022-10-26T08:11:34;3.35;;;2.70;;
67768;SDS011;54569;52.018;5.584;2022-10-26T08:14:01;3.38;;;2.90;;
67768;SDS011;54569;52.018;5.584;2022-10-26T08:16:27;6.50;;;3.17;;
67768;SDS011;54569;52.018;5.584;2022-10-26T08:18:53;5.10;;;3.00;;
67768;SDS011;54569;52.018;5.584;2022-10-26T08:21:19;7.95;;;2.78;;
67768;SDS011;54569;52.018;5.584;2022-10-26T08:23:44;4.90;;;2.75;;
67768;SDS011;54569;52.018;5.584;2022-10-26T08:26:11;5.63;;;2.60;;
67768;SDS011;54569;52.018;5.584;2022-10-26T08:28:36;4.07;;;3.13;;
67768;SDS011;54569;52.018;5.584;2022-10-26T08:31:03;7.70;;;2.60;;
67768;SDS011;54569;52.018;5.584;2022-10-26T08:33:29;5.40;;;2.75;;
67768;SDS011;54569;52.018;5.584;2022-10-26T08:35:55;6.13;;;2.70;;
67768;SDS011;54569;52.018;5.584;2022-10-26T08:38:22;3.03;;;2.55;;
67768;SDS011;54569;52.018;5.584;2022-10-26T08:40:48;7.00;;;2.78;;
67768;SDS011;54569;52.018;5.584;2022-10-26T08:43:16;4.10;;;2.35;;
67768;SDS011;54569;52.018;5.584;2022-10-26T08:45:48;4.57;;;2.45;;
67768;SDS011;54569;52.018;5.584;2022-10-26T08:48:20;3.50;;;1.95;;
67768;SDS011;54569;52.018;5.584;2022-10-26T08:50:51;3.30;;;2.10;;
67768;SDS011;54569;52.018;5.584;2022-10-26T08:53:20;3.78;;;2.47;;
67768;SDS011;54569;52.018;5.584;2022-10-26T08:56:03;4.68;;;2.15;;
67768;SDS011;54569;52.018;5.584;2022-10-26T09:01:02;5.75;;;2.50;;
67768;SDS011;54569;52.018;5.584;2022-10-26T09:03:29;4.38;;;2.42;;
67768;SDS011;54569;52.018;5.584;2022-10-26T09:09:06;2.75;;;2.55;;
67768;SDS011;54569;52.018;5.584;2022-10-26T09:11:50;2.75;;;2.47;;
67768;SDS011;54569;52.018;5.584;2022-10-26T09:26:36;3.05;;;2.30;;
67768;SDS011;54569;52.018;5.584;2022-10-26T09:29:13;5.18;;;2.30;;
67768;SDS011;54569;52.018;5.584;2022-10-26T09:31:44;4.93;;;2.17;;
67768;SDS011;54569;52.018;5.584;2022-10-26T09:34:28;5.85;;;2.55;;
67768;SDS011;54569;52.018;5.584;2022-10-26T09:37:12;3.25;;;2.42;;
67768;SDS011;54569;52.018;5.584;2022-10-26T09:39:48;3.40;;;2.40;;
67768;SDS011;54569;52.018;5.584;2022-10-26T09:42:42;4.70;;;2.28;;
67768;SDS011;54569;52.018;5.584;2022-10-26T09:45:17;4.00;;;2.40;;
67768;SDS011;54569;52.018;5.584;2022-10-26T09:47:49;4.75;;;2.50;;
67768;SDS011;54569;52.018;5.584;2022-10-26T09:50:28;5.10;;;2.40;;
67768;SDS011;54569;52.018;5.584;2022-10-26T09:53:00;4.65;;;2.50;;
67768;SDS011;54569;52.018;5.584;2022-10-26T09:55:26;3.65;;;2.40;;
67768;SDS011;54569;52.018;5.584;2022-10-26T09:57:53;3.08;;;2.40;;
67768;SDS011;54569;52.018;5.584;2022-10-26T10:00:22;3.78;;;2.72;;
67768;SDS011;54569;52.018;5.584;2022-10-26T10:02:51;7.45;;;3.00;;
67768;SDS011;54569;52.018;5.584;2022-10-26T10:05:22;5.32;;;3.00;;
67768;SDS011;54569;52.018;5.584;2022-10-26T10:07:48;3.28;;;2.42;;
67768;SDS011;54569;52.018;5.584;2022-10-26T10:10:18;4.45;;;2.85;;
67768;SDS011;54569;52.018;5.584;2022-10-26T10:12:46;5.07;;;2.92;;
67768;SDS011;54569;52.018;5.584;2022-10-26T10:15:19;7.18;;;2.92;;
67768;SDS011;54569;52.018;5.584;2022-10-26T10:17:47;2.75;;;2.38;;
67768;SDS011;54569;52.018;5.584;2022-10-26T10:20:18;4.78;;;2.63;;
67768;SDS011;54569;52.018;5.584;2022-10-26T10:22:59;6.57;;;3.00;;
67768;SDS011;54569;52.018;5.584;2022-10-26T10:25:38;3.40;;;2.53;;
67768;SDS011;54569;52.018;5.584;2022-10-26T10:28:20;6.03;;;2.70;;
67768;SDS011;54569;52.018;5.584;2022-10-26T10:30:51;4.90;;;2.92;;
67768;SDS011;54569;52.018;5.584;2022-10-26T10:33:19;5.63;;;2.17;;
67768;SDS011;54569;52.018;5.584;2022-10-26T10:35:49;3.45;;;2.58;;
67768;SDS011;54569;52.018;5.584;2022-10-26T10:38:17;4.43;;;2.38;;
67768;SDS011;54569;52.018;5.584;2022-10-26T10:40:48;5.93;;;2.45;;
67768;SDS011;54569;52.018;5.584;2022-10-26T10:43:24;4.35;;;2.65;;
67768;SDS011;54569;52.018;5.584;2022-10-26T10:45:52;5.07;;;2.72;;
67768;SDS011;54569;52.018;5.584;2022-10-26T10:48:21;3.33;;;2.25;;
67768;SDS011;54569;52.018;5.584;2022-10-26T10:51:03;2.90;;;1.90;;
67768;SDS011;54569;52.018;5.584;2022-10-26T10:53:37;4.72;;;2.40;;
67768;SDS011;54569;52.018;5.584;2022-10-26T11:02:28;6.25;;;2.17;;
67768;SDS011;54569;52.018;5.584;2022-10-26T11:05:22;5.75;;;2.40;;
67768;SDS011;54569;52.018;5.584;2022-10-26T11:10:59;3.53;;;2.20;;
67768;SDS011;54569;52.018;5.584;2022-10-26T11:13:42;5.13;;;2.40;;
67768;SDS011;54569;52.018;5.584;2022-10-26T11:16:25;8.25;;;2.60;;
67768;SDS011;54569;52.018;5.584;2022-10-26T11:21:35;3.83;;;2.42;;
67768;SDS011;54569;52.018;5.584;2022-10-26T11:24:12;3.28;;;2.35;;
67768;SDS011;54569;52.018;5.584;2022-10-26T11:29:44;6.47;;;3.17;;
67768;SDS011;54569;52.018;5.584;2022-10-26T11:32:17;7.22;;;2.60;;
67768;SDS011;54569;52.018;5.584;2022-10-26T11:34:52;5.72;;;2.47;;
67768;SDS011;54569;52.018;5.584;2022-10-26T11:48:33;5.55;;;3.15;;
67768;SDS011;54569;52.018;5.584;2022-10-26T11:57:09;4.53;;;2.70;;
67768;SDS011;54569;52.018;5.584;2022-10-26T11:59:38;6.32;;;2.97;;
67768;SDS011;54569;52.018;5.584;2022-10-26T12:02:18;5.15;;;3.00;;
67768;SDS011;54569;52.018;5.584;2022-10-26T12:05:05;4.80;;;2.97;;
67768;SDS011;54569;52.018;5.584;2022-10-26T12:07:39;2.92;;;2.63;;
67768;SDS011;54569;52.018;5.584;2022-10-26T12:10:19;4.70;;;2.92;;
67768;SDS011;54569;52.018;5.584;2022-10-26T12:12:58;4.28;;;2.58;;
67768;SDS011;54569;52.018;5.584;2022-10-26T12:23:02;3.08;;;2.67;;
67768;SDS011;54569;52.018;5.584;2022-10-26T12:25:29;6.30;;;2.92;;
67768;SDS011;54569;52.018;5.584;2022-10-26T12:27:54;4.97;;;2.85;;
67768;SDS011;54569;52.018;5.584;2022-10-26T12:32:53;5.50;;;3.20;;
67768;SDS011;54569;52.018;5.584;2022-10-26T12:37:58;5.38;;;2.78;;
67768;SDS011;54569;52.018;5.584;2022-10-26T12:42:57;4.65;;;2.80;;
67768;SDS011;54569;52.018;5.584;2022-10-26T12:45:43;4.50;;;2.58;;
67768;SDS011;54569;52.018;5.584;2022-10-26T12:50:46;2.65;;;2.45;;
67768;SDS011;54569;52.018;5.584;2022-10-26T12:53:16;2.53;;;2.33;;
67768;SDS011;54569;52.018;5.584;2022-10-26T13:01:18;2.67;;;2.47;;
67768;SDS011;54569;52.018;5.584;2022-10-26T13:09:30;4.95;;;2.40;;
67768;SDS011;54569;52.018;5.584;2022-10-26T13:11:57;2.95;;;2.55;;
67768;SDS011;54569;52.018;5.584;2022-10-26T13:14:36;4.53;;;2.10;;
67768;SDS011;54569;52.018;5.584;2022-10-26T13:17:17;3.15;;;2.40;;
67768;SDS011;54569;52.018;5.584;2022-10-26T13:19:55;3.42;;;2.20;;
67768;SDS011;54569;52.018;5.584;2022-10-26T13:22:24;4.10;;;2.20;;
67768;SDS011;54569;52.018;5.584;2022-10-26T13:24:51;2.72;;;2.13;;
67768;SDS011;54569;52.018;5.584;2022-10-26T13:32:35;3.45;;;2.58;;
67768;SDS011;54569;52.018;5.584;2022-10-26T13:35:10;4.25;;;2.70;;
67768;SDS011;54569;52.018;5.584;2022-10-26T13:37:39;3.47;;;2.78;;
67768;SDS011;54569;52.018;5.584;2022-10-26T13:40:09;4.38;;;3.03;;
67768;SDS011;54569;52.018;5.584;2022-10-26T13:42:52;6.28;;;2.90;;
67768;SDS011;54569;52.018;5.584;2022-10-26T13:45:22;3.65;;;3.30;;
67768;SDS011;54569;52.018;5.584;2022-10-26T13:50:24;4.85;;;3.15;;
67768;SDS011;54569;52.018;5.584;2022-10-26T13:52:53;3.88;;;3.47;;
67768;SDS011;54569;52.018;5.584;2022-10-26T13:55:30;5.68;;;3.53;;
67768;SDS011;54569;52.018;5.584;2022-10-26T14:00:29;3.88;;;3.40;;
67768;SDS011;54569;52.018;5.584;2022-10-26T14:02:55;4.18;;;3.67;;
67768;SDS011;54569;52.018;5.584;2022-10-26T14:05:21;4.22;;;3.03;;
67768;SDS011;54569;52.018;5.584;2022-10-26T14:07:48;4.40;;;3.40;;
67768;SDS011;54569;52.018;5.584;2022-10-26T14:10:39;5.65;;;3.70;;
67768;SDS011;54569;52.018;5.584;2022-10-26T14:13:12;7.38;;;3.10;;
67768;SDS011;54569;52.018;5.584;2022-10-26T14:15:44;6.18;;;3.45;;
67768;SDS011;54569;52.018;5.584;2022-10-26T14:18:13;3.78;;;3.10;;
67768;SDS011;54569;52.018;5.584;2022-10-26T14:23:28;4.40;;;3.50;;
67768;SDS011;54569;52.018;5.584;2022-10-26T14:25:59;3.60;;;3.08;;
67768;SDS011;54569;52.018;5.584;2022-10-26T14:28:26;5.28;;;3.17;;
67768;SDS011;54569;52.018;5.584;2022-10-26T14:30:53;6.72;;;3.40;;
67768;SDS011;54569;52.018;5.584;2022-10-26T14:33:22;4.63;;;3.15;;
67768;SDS011;54569;52.018;5.584;2022-10-26T14:35:51;4.72;;;2.72;;
67768;SDS011;54569;52.018;5.584;2022-10-26T14:40:50;3.63;;;2.50;;
67768;SDS011;54569;52.018;5.584;2022-10-26T14:43:20;5.82;;;2.85;;
67768;SDS011;54569;52.018;5.584;2022-10-26T14:45:48;5.70;;;2.65;;
67768;SDS011;54569;52.018;5.584;2022-10-26T14:48:24;4.95;;;3.00;;
67768;SDS011;54569;52.018;5.584;2022-10-26T14:51:07;6.03;;;2.95;;
67768;SDS011;54569;52.018;5.584;2022-10-26T14:53:52;6.18;;;2.72;;
67768;SDS011;54569;52.018;5.584;2022-10-26T14:58:52;5.40;;;2.30;;
67768;SDS011;54569;52.018;5.584;2022-10-26T15:03:48;2.47;;;1.45;;
67768;SDS011;54569;52.018;5.584;2022-10-26T15:08:56;3.53;;;1.50;;
67768;SDS011;54569;52.018;5.584;2022-10-26T15:11:27;5.85;;;1.60;;
67768;SDS011;54569;52.018;5.584;2022-10-26T15:13:54;3.95;;;1.45;;
67768;SDS011;54569;52.018;5.584;2022-10-26T15:16:22;4.80;;;1.27;;
67768;SDS011;54569;52.018;5.584;2022-10-26T15:18:56;3.15;;;1.30;;
67768;SDS011;54569;52.018;5.584;2022-10-26T15:21:25;2.38;;;1.30;;
67768;SDS011;54569;52.018;5.584;2022-10-26T15:23:56;2.53;;;1.30;;
67768;SDS011;54569;52.018;5.584;2022-10-26T15:26:23;2.65;;;1.50;;
67768;SDS011;54569;52.018;5.584;2022-10-26T15:28:49;5.32;;;1.52;;
67768;SDS011;54569;52.018;5.584;2022-10-26T15:36:20;3.03;;;1.25;;
67768;SDS011;54569;52.018;5.584;2022-10-26T15:38:48;4.45;;;1.55;;
67768;SDS011;54569;52.018;5.584;2022-10-26T15:41:22;3.83;;;1.50;;
67768;SDS011;54569;52.018;5.584;2022-10-26T15:43:52;2.80;;;1.55;;
67768;SDS011;54569;52.018;5.584;2022-10-26T15:46:23;2.55;;;1.48;;
67768;SDS011;54569;52.018;5.584;2022-10-26T15:48:54;7.20;;;1.77;;
67768;SDS011;54569;52.018;5.584;2022-10-26T15:51:21;5.22;;;1.98;;
67768;SDS011;54569;52.018;5.584;2022-10-26T15:53:47;6.80;;;1.92;;
67768;SDS011;54569;52.018;5.584;2022-10-26T15:56:16;6.07;;;2.00;;
67768;SDS011;54569;52.018;5.584;2022-10-26T15:58:45;3.95;;;1.90;;
67768;SDS011;54569;52.018;5.584;2022-10-26T16:01:15;4.88;;;1.50;;
67768;SDS011;54569;52.018;5.584;2022-10-26T16:03:42;5.18;;;1.90;;
67768;SDS011;54569;52.018;5.584;2022-10-26T16:06:11;4.43;;;1.92;;
67768;SDS011;54569;52.018;5.584;2022-10-26T16:08:40;3.13;;;1.60;;
67768;SDS011;54569;52.018;5.584;2022-10-26T16:11:09;7.25;;;1.70;;
67768;SDS011;54569;52.018;5.584;2022-10-26T16:13:34;6.75;;;1.95;;
67768;SDS011;54569;52.018;5.584;2022-10-26T16:16:00;3.78;;;1.60;;
67768;SDS011;54569;52.018;5.584;2022-10-26T16:18:26;3.90;;;1.60;;
67768;SDS011;54569;52.018;5.584;2022-10-26T16:20:51;7.07;;;2.20;;
67768;SDS011;54569;52.018;5.584;2022-10-26T16:23:17;4.13;;;2.00;;
67768;SDS011;54569;52.018;5.584;2022-10-26T16:25:43;5.22;;;2.15;;
67768;SDS011;54569;52.018;5.584;2022-10-26T16:28:15;4.20;;;2.20;;
67768;SDS011;54569;52.018;5.584;2022-10-26T16:30:41;5.65;;;2.53;;
67768;SDS011;54569;52.018;5.584;2022-10-26T16:33:07;7.40;;;2.95;;
67768;SDS011;54569;52.018;5.584;2022-10-26T16:35:33;7.63;;;4.88;;
67768;SDS011;54569;52.018;5.584;2022-10-26T16:37:59;9.15;;;6.53;;
67768;SDS011;54569;52.018;5.584;2022-10-26T16:40:24;9.20;;;5.30;;
67768;SDS011;54569;52.018;5.584;2022-10-26T16:42:50;6.32;;;4.32;;
67768;SDS011;54569;52.018;5.584;2022-10-26T16:45:16;5.65;;;3.63;;
67768;SDS011;54569;52.018;5.584;2022-10-26T16:47:42;4.95;;;3.25;;
67768;SDS011;54569;52.018;5.584;2022-10-26T16:50:08;7.78;;;3.08;;
67768;SDS011;54569;52.018;5.584;2022-10-26T16:52:35;5.47;;;2.60;;
67768;SDS011;54569;52.018;5.584;2022-10-26T16:55:02;5.32;;;2.45;;
67768;SDS011;54569;52.018;5.584;2022-10-26T16:57:30;3.53;;;2.25;;
67768;SDS011;54569;52.018;5.584;2022-10-26T16:59:55;4.45;;;2.35;;
67768;SDS011;54569;52.018;5.584;2022-10-26T17:02:22;6.22;;;2.53;;
67768;SDS011;54569;52.018;5.584;2022-10-26T17:04:47;8.45;;;3.47;;
67768;SDS011;54569;52.018;5.584;2022-10-26T17:07:13;6.85;;;3.28;;
67768;SDS011;54569;52.018;5.584;2022-10-26T17:09:39;5.80;;;4.05;;
67768;SDS011;54569;52.018;5.584;2022-10-26T17:12:04;7.80;;;4.32;;
67768;SDS011;54569;52.018;5.584;2022-10-26T17:14:30;9.82;;;4.80;;
67768;SDS011;54569;52.018;5.584;2022-10-26T17:16:56;7.13;;;3.67;;
67768;SDS011;54569;52.018;5.584;2022-10-26T17:19:22;6.85;;;2.75;;
67768;SDS011;54569;52.018;5.584;2022-10-26T17:21:48;5.47;;;2.28;;
67768;SDS011;54569;52.018;5.584;2022-10-26T17:24:14;4.00;;;1.80;;
67768;SDS011;54569;52.018;5.584;2022-10-26T17:26:40;5.40;;;1.95;;
67768;SDS011;54569;52.018;5.584;2022-10-26T17:29:06;3.90;;;2.00;;
67768;SDS011;54569;52.018;5.584;2022-10-26T17:31:31;7.28;;;2.47;;
67768;SDS011;54569;52.018;5.584;2022-10-26T17:33:57;3.17;;;2.10;;